Du har inga inställningar för hoppväder.nu

Hoppväder.nu

Senast uppdaterat 23:57

UTC-tid

2019-10-20 kl. 21:57


Sol och måne

Solen går upp 7:57 och går ner 18:45 (beräknade cirkatider)
Nästa fullmåne blir om 23 dagar (2019-11-12)

METAR

ESMS (Malmö)
(7 minuter sedan)
ESMS 202150Z 00000KT 2000 R17/P1500N R35/1200N BCFG FEW004 10/10 Q1015=



ESMK (Everöd)
(7 minuter sedan)
ESMK 202150Z AUTO 33001KT 0300 R01/P2000N R19/1100N BR FEW089/// 10/10 Q1015=



ESTL (Ljungbyhed)
(7 minuter sedan)
ESTL 202150Z AUTO 10001KT 0300 R29L/0900D BCFG VV000 09/09 Q1015=



EKCH (Köpenhamn)
(7 minuter sedan)
EKCH 202150Z 00000KT 6000 R22L/P1500N R04L/0800N R12/P1500N MIFG FEW013 SCT140 12/11 Q1015 TEMPO 1200 BCFG BKN006=



ESTA (Ängelholm)
(7 minuter sedan)
ESTA 202150Z AUTO 11003KT 0400 R14/P1500N R32/P1500D FEW003/// BKN009/// 09/09 Q1015=



TAF

ESMS (Malmö)
(146 minuter sedan)
ESMS AMD 201931Z 2019/2118 VRB02KT 6000 SCT020 TEMPO 2019/2021 2000 -RADZ BR BKN004 PROB40 2021/2109 0400 FG BKN002 TEMPO 2109/2118 4000 -RADZ BKN012=



ESMK (Everöd)
(284 minuter sedan)
ESMK 201713Z 2018/2020 VRB02KT 9999 FEW020 BECMG 2018/2020 4000 BR=



ESTL (Ljungbyhed)
ESTL



EKCH (Köpenhamn)
(31 minuter sedan)
EKCH AMD 202126Z 2021/2118 VRB02KT 6000 SCT020 TEMPO 2021/2103 1200 BCFG BKN006 BECMG 2105/2107 07010KT TEMPO 2110/2116 4000 -RADZ BKN012 BECMG 2116/2118 4000 BR BKN008=



ESTA (Ängelholm)
(97 minuter sedan)
ESTA 202020Z 2021/2023 VRB02KT 3000 BR FEW020 BECMG 2021/2023 0300 FG BKN004=





Kodnycklar till TAF och METAR






LHP

(Eslöv är område J3c i Hela Område E)





Spotting

Hur fungerar spotthjälpen och Vindkartan?

Markvind är ca 0 m/s.



Vindkartan

Senast uppdaterad 23:57




All data kommer från LFV.se